sensor_id;sensor_type;location;lat;lon;timestamp;P1;durP1;ratioP1;P2;durP2;ratioP2
4821;SDS011;2425;47.794;13.068;2023-08-01T00:00:12;2.80;;;2.60;;
4821;SDS011;2425;47.794;13.068;2023-08-01T00:02:38;2.97;;;2.73;;
4821;SDS011;2425;47.794;13.068;2023-08-01T00:05:07;3.80;;;2.87;;
4821;SDS011;2425;47.794;13.068;2023-08-01T00:07:34;4.40;;;3.00;;
4821;SDS011;2425;47.794;13.068;2023-08-01T00:10:00;3.07;;;2.87;;
4821;SDS011;2425;47.794;13.068;2023-08-01T00:12:27;3.67;;;3.30;;
4821;SDS011;2425;47.794;13.068;2023-08-01T00:14:53;2.70;;;2.50;;
4821;SDS011;2425;47.794;13.068;2023-08-01T00:17:21;2.63;;;2.37;;
4821;SDS011;2425;47.794;13.068;2023-08-01T00:19:47;3.53;;;2.40;;
4821;SDS011;2425;47.794;13.068;2023-08-01T00:22:14;2.80;;;2.60;;
4821;SDS011;2425;47.794;13.068;2023-08-01T00:24:40;3.07;;;2.87;;
4821;SDS011;2425;47.794;13.068;2023-08-01T00:27:07;3.90;;;2.80;;
4821;SDS011;2425;47.794;13.068;2023-08-01T00:29:35;2.90;;;2.67;;
4821;SDS011;2425;47.794;13.068;2023-08-01T00:32:02;3.80;;;2.43;;
4821;SDS011;2425;47.794;13.068;2023-08-01T00:34:29;4.00;;;2.20;;
4821;SDS011;2425;47.794;13.068;2023-08-01T00:36:56;4.43;;;3.10;;
4821;SDS011;2425;47.794;13.068;2023-08-01T00:39:22;3.80;;;2.80;;
4821;SDS011;2425;47.794;13.068;2023-08-01T00:41:49;2.60;;;2.50;;
4821;SDS011;2425;47.794;13.068;2023-08-01T00:44:15;3.23;;;2.93;;
4821;SDS011;2425;47.794;13.068;2023-08-01T00:46:42;10.33;;;2.97;;
4821;SDS011;2425;47.794;13.068;2023-08-01T00:49:08;2.47;;;2.27;;
4821;SDS011;2425;47.794;13.068;2023-08-01T00:51:36;2.83;;;2.63;;
4821;SDS011;2425;47.794;13.068;2023-08-01T00:54:02;5.03;;;2.83;;
4821;SDS011;2425;47.794;13.068;2023-08-01T00:56:29;2.63;;;2.43;;
4821;SDS011;2425;47.794;13.068;2023-08-01T00:58:55;2.93;;;2.73;;
4821;SDS011;2425;47.794;13.068;2023-08-01T01:01:22;3.53;;;2.70;;
4821;SDS011;2425;47.794;13.068;2023-08-01T01:03:48;2.73;;;2.53;;
4821;SDS011;2425;47.794;13.068;2023-08-01T01:06:16;2.97;;;2.60;;
4821;SDS011;2425;47.794;13.068;2023-08-01T01:08:45;2.70;;;2.50;;
4821;SDS011;2425;47.794;13.068;2023-08-01T01:11:11;4.77;;;2.70;;
4821;SDS011;2425;47.794;13.068;2023-08-01T01:13:38;2.37;;;2.23;;
4821;SDS011;2425;47.794;13.068;2023-08-01T01:16:04;7.13;;;2.57;;
4821;SDS011;2425;47.794;13.068;2023-08-01T01:18:31;3.67;;;2.47;;
4821;SDS011;2425;47.794;13.068;2023-08-01T01:20:58;3.00;;;2.80;;
4821;SDS011;2425;47.794;13.068;2023-08-01T01:23:25;2.33;;;2.13;;
4821;SDS011;2425;47.794;13.068;2023-08-01T01:25:52;2.67;;;2.47;;
4821;SDS011;2425;47.794;13.068;2023-08-01T01:28:20;3.00;;;2.50;;
4821;SDS011;2425;47.794;13.068;2023-08-01T01:30:46;6.10;;;2.37;;
4821;SDS011;2425;47.794;13.068;2023-08-01T01:33:14;6.10;;;2.60;;
4821;SDS011;2425;47.794;13.068;2023-08-01T01:35:41;3.23;;;2.40;;
4821;SDS011;2425;47.794;13.068;2023-08-01T01:38:09;4.47;;;2.60;;
4821;SDS011;2425;47.794;13.068;2023-08-01T01:40:35;6.90;;;2.70;;
4821;SDS011;2425;47.794;13.068;2023-08-01T01:43:02;3.90;;;2.80;;
4821;SDS011;2425;47.794;13.068;2023-08-01T01:45:28;2.60;;;2.40;;
4821;SDS011;2425;47.794;13.068;2023-08-01T01:47:55;2.93;;;2.60;;
4821;SDS011;2425;47.794;13.068;2023-08-01T01:50:21;3.10;;;2.80;;
4821;SDS011;2425;47.794;13.068;2023-08-01T01:52:47;2.53;;;2.33;;
4821;SDS011;2425;47.794;13.068;2023-08-01T01:55:15;2.63;;;2.43;;
4821;SDS011;2425;47.794;13.068;2023-08-01T01:57:42;4.73;;;2.80;;
4821;SDS011;2425;47.794;13.068;2023-08-01T02:00:09;4.67;;;2.30;;
4821;SDS011;2425;47.794;13.068;2023-08-01T02:02:35;2.40;;;2.30;;
4821;SDS011;2425;47.794;13.068;2023-08-01T02:05:02;2.53;;;2.43;;
4821;SDS011;2425;47.794;13.068;2023-08-01T02:07:29;2.70;;;2.50;;
4821;SDS011;2425;47.794;13.068;2023-08-01T02:09:55;2.77;;;2.67;;
4821;SDS011;2425;47.794;13.068;2023-08-01T02:12:23;2.50;;;2.40;;
4821;SDS011;2425;47.794;13.068;2023-08-01T02:14:49;7.40;;;2.70;;
4821;SDS011;2425;47.794;13.068;2023-08-01T02:17:16;2.60;;;2.40;;
4821;SDS011;2425;47.794;13.068;2023-08-01T02:19:42;3.10;;;2.53;;
4821;SDS011;2425;47.794;13.068;2023-08-01T02:22:09;5.10;;;2.70;;
4821;SDS011;2425;47.794;13.068;2023-08-01T02:24:35;3.83;;;2.83;;
4821;SDS011;2425;47.794;13.068;2023-08-01T02:27:01;2.60;;;2.47;;
4821;SDS011;2425;47.794;13.068;2023-08-01T02:29:29;4.20;;;2.43;;
4821;SDS011;2425;47.794;13.068;2023-08-01T02:31:56;2.43;;;2.27;;
4821;SDS011;2425;47.794;13.068;2023-08-01T02:34:22;2.93;;;2.47;;
4821;SDS011;2425;47.794;13.068;2023-08-01T02:36:49;4.57;;;2.57;;
4821;SDS011;2425;47.794;13.068;2023-08-01T02:39:15;2.80;;;2.60;;
4821;SDS011;2425;47.794;13.068;2023-08-01T02:41:41;2.53;;;2.33;;
4821;SDS011;2425;47.794;13.068;2023-08-01T02:44:08;5.60;;;2.73;;
4821;SDS011;2425;47.794;13.068;2023-08-01T02:46:36;2.40;;;2.20;;
4821;SDS011;2425;47.794;13.068;2023-08-01T02:49:02;4.47;;;2.57;;
4821;SDS011;2425;47.794;13.068;2023-08-01T02:51:29;4.07;;;3.07;;
4821;SDS011;2425;47.794;13.068;2023-08-01T02:53:55;3.60;;;2.80;;
4821;SDS011;2425;47.794;13.068;2023-08-01T02:56:22;2.80;;;2.60;;
4821;SDS011;2425;47.794;13.068;2023-08-01T02:58:48;4.23;;;2.57;;
4821;SDS011;2425;47.794;13.068;2023-08-01T03:01:17;4.10;;;2.67;;
4821;SDS011;2425;47.794;13.068;2023-08-01T03:03:44;2.63;;;2.40;;
4821;SDS011;2425;47.794;13.068;2023-08-01T03:06:11;3.03;;;2.80;;
4821;SDS011;2425;47.794;13.068;2023-08-01T03:08:39;2.97;;;2.70;;
4821;SDS011;2425;47.794;13.068;2023-08-01T03:11:06;2.90;;;2.70;;
4821;SDS011;2425;47.794;13.068;2023-08-01T03:13:32;2.90;;;2.70;;
4821;SDS011;2425;47.794;13.068;2023-08-01T03:15:58;3.27;;;3.07;;
4821;SDS011;2425;47.794;13.068;2023-08-01T03:18:25;3.03;;;2.83;;
4821;SDS011;2425;47.794;13.068;2023-08-01T03:20:53;10.80;;;2.80;;
4821;SDS011;2425;47.794;13.068;2023-08-01T03:23:19;2.80;;;2.70;;
4821;SDS011;2425;47.794;13.068;2023-08-01T03:25:46;8.97;;;2.20;;
4821;SDS011;2425;47.794;13.068;2023-08-01T03:28:12;2.60;;;2.50;;
4821;SDS011;2425;47.794;13.068;2023-08-01T03:30:39;4.43;;;3.20;;
4821;SDS011;2425;47.794;13.068;2023-08-01T03:33:05;7.93;;;2.80;;
4821;SDS011;2425;47.794;13.068;2023-08-01T03:35:32;3.93;;;2.53;;
4821;SDS011;2425;47.794;13.068;2023-08-01T03:37:59;4.37;;;2.70;;
4821;SDS011;2425;47.794;13.068;2023-08-01T03:40:26;4.07;;;2.83;;
4821;SDS011;2425;47.794;13.068;2023-08-01T03:42:52;3.77;;;2.50;;
4821;SDS011;2425;47.794;13.068;2023-08-01T03:45:19;2.90;;;2.70;;
4821;SDS011;2425;47.794;13.068;2023-08-01T03:47:45;2.80;;;2.70;;
4821;SDS011;2425;47.794;13.068;2023-08-01T03:50:12;4.60;;;2.67;;
4821;SDS011;2425;47.794;13.068;2023-08-01T03:52:39;2.50;;;2.40;;
4821;SDS011;2425;47.794;13.068;2023-08-01T03:55:07;3.50;;;2.67;;
4821;SDS011;2425;47.794;13.068;2023-08-01T03:57:33;4.73;;;2.63;;
4821;SDS011;2425;47.794;13.068;2023-08-01T04:00:00;3.07;;;2.93;;
4821;SDS011;2425;47.794;13.068;2023-08-01T04:02:28;4.00;;;3.00;;
4821;SDS011;2425;47.794;13.068;2023-08-01T04:04:54;3.20;;;2.73;;
4821;SDS011;2425;47.794;13.068;2023-08-01T04:07:20;3.17;;;2.60;;
4821;SDS011;2425;47.794;13.068;2023-08-01T04:09:47;4.63;;;2.87;;
4821;SDS011;2425;47.794;13.068;2023-08-01T04:12:15;3.10;;;2.80;;
4821;SDS011;2425;47.794;13.068;2023-08-01T04:14:41;2.60;;;2.50;;
4821;SDS011;2425;47.794;13.068;2023-08-01T04:17:09;3.90;;;2.80;;
4821;SDS011;2425;47.794;13.068;2023-08-01T04:19:35;2.23;;;2.23;;
4821;SDS011;2425;47.794;13.068;2023-08-01T04:22:01;3.20;;;2.90;;
4821;SDS011;2425;47.794;13.068;2023-08-01T04:24:28;6.63;;;2.40;;
4821;SDS011;2425;47.794;13.068;2023-08-01T04:26:56;3.43;;;2.90;;
4821;SDS011;2425;47.794;13.068;2023-08-01T04:29:23;3.00;;;2.80;;
4821;SDS011;2425;47.794;13.068;2023-08-01T04:31:50;2.87;;;2.67;;
4821;SDS011;2425;47.794;13.068;2023-08-01T04:34:16;3.03;;;2.73;;
4821;SDS011;2425;47.794;13.068;2023-08-01T04:36:43;3.20;;;2.83;;
4821;SDS011;2425;47.794;13.068;2023-08-01T04:39:09;3.67;;;3.17;;
4821;SDS011;2425;47.794;13.068;2023-08-01T04:41:36;4.60;;;3.50;;
4821;SDS011;2425;47.794;13.068;2023-08-01T04:44:02;2.53;;;2.37;;
4821;SDS011;2425;47.794;13.068;2023-08-01T04:46:30;4.10;;;2.30;;
4821;SDS011;2425;47.794;13.068;2023-08-01T04:48:56;2.67;;;2.47;;
4821;SDS011;2425;47.794;13.068;2023-08-01T04:51:24;2.57;;;2.47;;
4821;SDS011;2425;47.794;13.068;2023-08-01T04:53:50;2.40;;;2.30;;
4821;SDS011;2425;47.794;13.068;2023-08-01T04:56:16;3.07;;;2.77;;
4821;SDS011;2425;47.794;13.068;2023-08-01T04:58:43;3.50;;;2.53;;
4821;SDS011;2425;47.794;13.068;2023-08-01T05:01:09;2.70;;;2.50;;
4821;SDS011;2425;47.794;13.068;2023-08-01T05:03:37;3.40;;;3.10;;
4821;SDS011;2425;47.794;13.068;2023-08-01T05:06:04;3.50;;;3.20;;
4821;SDS011;2425;47.794;13.068;2023-08-01T05:08:30;3.80;;;3.13;;
4821;SDS011;2425;47.794;13.068;2023-08-01T05:10:56;2.83;;;2.70;;
4821;SDS011;2425;47.794;13.068;2023-08-01T05:13:23;4.00;;;3.00;;
4821;SDS011;2425;47.794;13.068;2023-08-01T05:15:49;2.83;;;2.63;;
4821;SDS011;2425;47.794;13.068;2023-08-01T05:18:16;3.10;;;2.90;;
4821;SDS011;2425;47.794;13.068;2023-08-01T05:20:44;3.93;;;2.80;;
4821;SDS011;2425;47.794;13.068;2023-08-01T05:23:10;8.13;;;3.60;;
4821;SDS011;2425;47.794;13.068;2023-08-01T05:25:37;3.70;;;3.00;;
4821;SDS011;2425;47.794;13.068;2023-08-01T05:28:06;2.93;;;2.73;;
4821;SDS011;2425;47.794;13.068;2023-08-01T05:30:38;2.90;;;2.70;;
4821;SDS011;2425;47.794;13.068;2023-08-01T05:33:19;4.80;;;3.20;;
4821;SDS011;2425;47.794;13.068;2023-08-01T05:35:59;3.03;;;2.70;;
4821;SDS011;2425;47.794;13.068;2023-08-01T05:38:27;3.87;;;2.83;;
4821;SDS011;2425;47.794;13.068;2023-08-01T05:40:53;3.30;;;3.00;;
4821;SDS011;2425;47.794;13.068;2023-08-01T05:43:20;2.77;;;2.57;;
4821;SDS011;2425;47.794;13.068;2023-08-01T05:45:46;4.80;;;2.90;;
4821;SDS011;2425;47.794;13.068;2023-08-01T05:48:13;3.20;;;2.90;;
4821;SDS011;2425;47.794;13.068;2023-08-01T05:50:39;2.70;;;2.50;;
4821;SDS011;2425;47.794;13.068;2023-08-01T05:53:07;3.10;;;2.80;;
4821;SDS011;2425;47.794;13.068;2023-08-01T05:55:33;2.87;;;2.70;;
4821;SDS011;2425;47.794;13.068;2023-08-01T05:58:00;3.33;;;3.00;;
4821;SDS011;2425;47.794;13.068;2023-08-01T06:00:26;3.23;;;2.97;;
4821;SDS011;2425;47.794;13.068;2023-08-01T06:02:53;3.33;;;2.90;;
4821;SDS011;2425;47.794;13.068;2023-08-01T06:05:19;2.53;;;2.43;;
4821;SDS011;2425;47.794;13.068;2023-08-01T06:07:46;2.87;;;2.47;;
4821;SDS011;2425;47.794;13.068;2023-08-01T06:10:13;2.83;;;2.70;;
4821;SDS011;2425;47.794;13.068;2023-08-01T06:12:40;3.00;;;2.80;;
4821;SDS011;2425;47.794;13.068;2023-08-01T06:15:06;2.63;;;2.53;;
4821;SDS011;2425;47.794;13.068;2023-08-01T06:17:33;3.17;;;2.93;;
4821;SDS011;2425;47.794;13.068;2023-08-01T06:19:59;3.17;;;2.97;;
4821;SDS011;2425;47.794;13.068;2023-08-01T06:22:29;3.47;;;3.10;;
4821;SDS011;2425;47.794;13.068;2023-08-01T06:24:55;3.27;;;3.03;;
4821;SDS011;2425;47.794;13.068;2023-08-01T06:27:23;3.00;;;2.80;;
4821;SDS011;2425;47.794;13.068;2023-08-01T06:29:49;3.97;;;3.03;;
4821;SDS011;2425;47.794;13.068;2023-08-01T06:32:16;3.70;;;2.93;;
4821;SDS011;2425;47.794;13.068;2023-08-01T06:34:42;3.20;;;3.00;;
4821;SDS011;2425;47.794;13.068;2023-08-01T06:37:08;3.67;;;3.37;;
4821;SDS011;2425;47.794;13.068;2023-08-01T06:39:36;3.27;;;3.03;;
4821;SDS011;2425;47.794;13.068;2023-08-01T06:42:02;4.10;;;3.13;;
4821;SDS011;2425;47.794;13.068;2023-08-01T06:44:30;4.27;;;2.90;;
4821;SDS011;2425;47.794;13.068;2023-08-01T06:46:57;5.13;;;3.00;;
4821;SDS011;2425;47.794;13.068;2023-08-01T06:49:23;3.73;;;2.87;;
4821;SDS011;2425;47.794;13.068;2023-08-01T06:51:50;4.70;;;2.93;;
4821;SDS011;2425;47.794;13.068;2023-08-01T06:54:16;7.83;;;3.27;;
4821;SDS011;2425;47.794;13.068;2023-08-01T06:56:42;3.27;;;3.07;;
4821;SDS011;2425;47.794;13.068;2023-08-01T06:59:12;5.37;;;3.00;;
4821;SDS011;2425;47.794;13.068;2023-08-01T07:01:40;7.37;;;2.80;;
4821;SDS011;2425;47.794;13.068;2023-08-01T07:04:08;3.70;;;2.80;;
4821;SDS011;2425;47.794;13.068;2023-08-01T07:06:34;3.23;;;2.83;;
4821;SDS011;2425;47.794;13.068;2023-08-01T07:09:01;9.87;;;2.87;;
4821;SDS011;2425;47.794;13.068;2023-08-01T07:11:27;6.50;;;2.70;;
4821;SDS011;2425;47.794;13.068;2023-08-01T07:13:54;4.13;;;2.70;;
4821;SDS011;2425;47.794;13.068;2023-08-01T07:16:20;2.70;;;2.50;;
4821;SDS011;2425;47.794;13.068;2023-08-01T07:18:48;3.43;;;2.80;;
4821;SDS011;2425;47.794;13.068;2023-08-01T07:21:16;4.00;;;2.63;;
4821;SDS011;2425;47.794;13.068;2023-08-01T07:23:42;5.90;;;3.00;;
4821;SDS011;2425;47.794;13.068;2023-08-01T07:26:09;2.97;;;2.87;;
4821;SDS011;2425;47.794;13.068;2023-08-01T07:28:36;4.40;;;2.60;;
4821;SDS011;2425;47.794;13.068;2023-08-01T07:31:03;2.73;;;2.63;;
4821;SDS011;2425;47.794;13.068;2023-08-01T07:33:30;9.60;;;3.50;;
4821;SDS011;2425;47.794;13.068;2023-08-01T07:35:58;3.60;;;2.93;;
4821;SDS011;2425;47.794;13.068;2023-08-01T07:38:24;2.83;;;2.63;;
4821;SDS011;2425;47.794;13.068;2023-08-01T07:40:52;3.70;;;3.03;;
4821;SDS011;2425;47.794;13.068;2023-08-01T07:43:18;3.17;;;2.77;;
4821;SDS011;2425;47.794;13.068;2023-08-01T07:45:45;2.63;;;2.47;;
4821;SDS011;2425;47.794;13.068;2023-08-01T07:48:11;3.07;;;2.87;;
4821;SDS011;2425;47.794;13.068;2023-08-01T07:50:38;3.23;;;2.77;;
4821;SDS011;2425;47.794;13.068;2023-08-01T07:53:05;8.33;;;2.57;;
4821;SDS011;2425;47.794;13.068;2023-08-01T07:55:33;3.93;;;3.63;;
4821;SDS011;2425;47.794;13.068;2023-08-01T07:57:59;3.40;;;3.10;;
4821;SDS011;2425;47.794;13.068;2023-08-01T08:00:26;3.50;;;3.30;;
4821;SDS011;2425;47.794;13.068;2023-08-01T08:02:53;5.80;;;2.97;;
4821;SDS011;2425;47.794;13.068;2023-08-01T08:05:19;3.23;;;2.90;;
4821;SDS011;2425;47.794;13.068;2023-08-01T08:07:46;3.20;;;2.90;;
4821;SDS011;2425;47.794;13.068;2023-08-01T08:10:13;3.53;;;3.23;;
4821;SDS011;2425;47.794;13.068;2023-08-01T08:12:40;10.93;;;3.33;;
4821;SDS011;2425;47.794;13.068;2023-08-01T08:15:07;4.73;;;2.93;;
4821;SDS011;2425;47.794;13.068;2023-08-01T08:17:33;3.90;;;3.17;;
4821;SDS011;2425;47.794;13.068;2023-08-01T08:20:00;3.87;;;3.57;;
4821;SDS011;2425;47.794;13.068;2023-08-01T08:22:27;6.63;;;3.30;;
4821;SDS011;2425;47.794;13.068;2023-08-01T08:24:53;3.50;;;3.10;;
4821;SDS011;2425;47.794;13.068;2023-08-01T08:27:21;3.50;;;3.30;;
4821;SDS011;2425;47.794;13.068;2023-08-01T08:29:47;9.23;;;3.77;;
4821;SDS011;2425;47.794;13.068;2023-08-01T08:32:14;4.63;;;3.40;;
4821;SDS011;2425;47.794;13.068;2023-08-01T08:34:40;3.77;;;3.37;;
4821;SDS011;2425;47.794;13.068;2023-08-01T08:37:07;4.20;;;3.10;;
4821;SDS011;2425;47.794;13.068;2023-08-01T08:39:33;3.60;;;3.30;;
4821;SDS011;2425;47.794;13.068;2023-08-01T08:41:59;3.40;;;3.10;;
4821;SDS011;2425;47.794;13.068;2023-08-01T08:44:27;3.87;;;3.47;;
4821;SDS011;2425;47.794;13.068;2023-08-01T08:46:55;5.13;;;3.20;;
4821;SDS011;2425;47.794;13.068;2023-08-01T08:49:25;10.60;;;3.40;;
4821;SDS011;2425;47.794;13.068;2023-08-01T08:51:52;3.60;;;3.30;;
4821;SDS011;2425;47.794;13.068;2023-08-01T08:54:20;5.13;;;3.70;;
4821;SDS011;2425;47.794;13.068;2023-08-01T08:56:47;5.60;;;2.83;;
4821;SDS011;2425;47.794;13.068;2023-08-01T08:59:13;7.50;;;2.90;;
4821;SDS011;2425;47.794;13.068;2023-08-01T09:01:41;3.60;;;3.30;;
4821;SDS011;2425;47.794;13.068;2023-08-01T09:04:08;4.87;;;3.13;;
4821;SDS011;2425;47.794;13.068;2023-08-01T09:06:37;3.87;;;3.37;;
4821;SDS011;2425;47.794;13.068;2023-08-01T09:09:04;3.20;;;3.00;;
4821;SDS011;2425;47.794;13.068;2023-08-01T09:11:41;3.20;;;2.90;;
4821;SDS011;2425;47.794;13.068;2023-08-01T09:14:08;3.10;;;2.90;;
4821;SDS011;2425;47.794;13.068;2023-08-01T09:16:35;6.40;;;3.60;;
4821;SDS011;2425;47.794;13.068;2023-08-01T09:19:05;3.37;;;3.07;;
4821;SDS011;2425;47.794;13.068;2023-08-01T09:21:32;3.40;;;3.10;;
4821;SDS011;2425;47.794;13.068;2023-08-01T09:24:07;3.50;;;3.20;;
4821;SDS011;2425;47.794;13.068;2023-08-01T09:26:33;3.57;;;3.27;;
4821;SDS011;2425;47.794;13.068;2023-08-01T09:29:00;3.90;;;3.03;;
4821;SDS011;2425;47.794;13.068;2023-08-01T09:31:26;4.03;;;3.70;;
4821;SDS011;2425;47.794;13.068;2023-08-01T09:33:53;3.50;;;3.20;;
4821;SDS011;2425;47.794;13.068;2023-08-01T09:36:21;7.60;;;3.33;;
4821;SDS011;2425;47.794;13.068;2023-08-01T09:38:48;5.30;;;3.33;;
4821;SDS011;2425;47.794;13.068;2023-08-01T09:41:16;3.37;;;3.17;;
4821;SDS011;2425;47.794;13.068;2023-08-01T09:43:44;4.33;;;3.30;;
4821;SDS011;2425;47.794;13.068;2023-08-01T09:46:11;6.67;;;3.67;;
4821;SDS011;2425;47.794;13.068;2023-08-01T09:48:37;8.83;;;2.77;;
4821;SDS011;2425;47.794;13.068;2023-08-01T09:51:05;3.23;;;2.93;;
4821;SDS011;2425;47.794;13.068;2023-08-01T09:53:32;3.77;;;2.73;;
4821;SDS011;2425;47.794;13.068;2023-08-01T09:55:59;3.43;;;3.13;;
4821;SDS011;2425;47.794;13.068;2023-08-01T09:58:26;3.40;;;3.07;;
4821;SDS011;2425;47.794;13.068;2023-08-01T10:00:57;4.30;;;3.10;;
4821;SDS011;2425;47.794;13.068;2023-08-01T10:03:25;4.00;;;3.20;;
4821;SDS011;2425;47.794;13.068;2023-08-01T10:05:52;4.40;;;3.10;;
4821;SDS011;2425;47.794;13.068;2023-08-01T10:08:19;3.40;;;3.00;;
4821;SDS011;2425;47.794;13.068;2023-08-01T10:10:48;4.93;;;3.03;;
4821;SDS011;2425;47.794;13.068;2023-08-01T10:13:15;3.40;;;3.10;;
4821;SDS011;2425;47.794;13.068;2023-08-01T10:15:42;3.10;;;2.80;;
4821;SDS011;2425;47.794;13.068;2023-08-01T10:18:08;4.70;;;3.30;;
4821;SDS011;2425;47.794;13.068;2023-08-01T10:20:36;3.33;;;3.03;;
4821;SDS011;2425;47.794;13.068;2023-08-01T10:23:03;3.60;;;3.17;;
4821;SDS011;2425;47.794;13.068;2023-08-01T10:25:30;23.80;;;3.50;;
4821;SDS011;2425;47.794;13.068;2023-08-01T10:27:58;4.10;;;2.90;;
4821;SDS011;2425;47.794;13.068;2023-08-01T10:30:26;3.30;;;3.10;;
4821;SDS011;2425;47.794;13.068;2023-08-01T10:32:54;3.27;;;3.07;;
4821;SDS011;2425;47.794;13.068;2023-08-01T10:35:30;3.40;;;3.10;;
4821;SDS011;2425;47.794;13.068;2023-08-01T10:38:02;4.80;;;2.80;;
4821;SDS011;2425;47.794;13.068;2023-08-01T10:40:32;10.90;;;3.50;;
4821;SDS011;2425;47.794;13.068;2023-08-01T10:43:00;3.37;;;3.07;;
4821;SDS011;2425;47.794;13.068;2023-08-01T10:45:27;3.60;;;3.20;;
4821;SDS011;2425;47.794;13.068;2023-08-01T10:47:54;2.80;;;2.60;;
4821;SDS011;2425;47.794;13.068;2023-08-01T10:50:31;5.50;;;3.20;;
4821;SDS011;2425;47.794;13.068;2023-08-01T10:53:01;10.90;;;2.97;;
4821;SDS011;2425;47.794;13.068;2023-08-01T10:55:28;5.73;;;3.00;;
4821;SDS011;2425;47.794;13.068;2023-08-01T10:58:05;5.17;;;2.80;;
4821;SDS011;2425;47.794;13.068;2023-08-01T11:00:31;3.90;;;3.00;;
4821;SDS011;2425;47.794;13.068;2023-08-01T11:02:58;4.70;;;2.77;;
4821;SDS011;2425;47.794;13.068;2023-08-01T11:05:24;8.67;;;3.20;;
4821;SDS011;2425;47.794;13.068;2023-08-01T11:07:53;8.53;;;3.63;;
4821;SDS011;2425;47.794;13.068;2023-08-01T11:10:20;5.10;;;3.07;;
4821;SDS011;2425;47.794;13.068;2023-08-01T11:12:47;5.90;;;2.80;;
4821;SDS011;2425;47.794;13.068;2023-08-01T11:15:15;5.77;;;3.10;;
4821;SDS011;2425;47.794;13.068;2023-08-01T11:17:42;3.93;;;3.07;;
4821;SDS011;2425;47.794;13.068;2023-08-01T11:20:09;3.53;;;2.80;;
4821;SDS011;2425;47.794;13.068;2023-08-01T11:22:36;3.07;;;2.70;;
4821;SDS011;2425;47.794;13.068;2023-08-01T11:25:03;5.40;;;3.13;;
4821;SDS011;2425;47.794;13.068;2023-08-01T11:27:30;10.73;;;4.23;;
4821;SDS011;2425;47.794;13.068;2023-08-01T11:29:57;4.13;;;3.83;;
4821;SDS011;2425;47.794;13.068;2023-08-01T11:32:34;15.53;;;4.77;;
4821;SDS011;2425;47.794;13.068;2023-08-01T11:35:01;5.63;;;4.63;;
4821;SDS011;2425;47.794;13.068;2023-08-01T11:37:27;14.40;;;6.90;;
4821;SDS011;2425;47.794;13.068;2023-08-01T11:39:54;13.33;;;6.00;;
4821;SDS011;2425;47.794;13.068;2023-08-01T11:42:21;20.23;;;8.43;;
4821;SDS011;2425;47.794;13.068;2023-08-01T11:44:47;15.17;;;8.10;;
4821;SDS011;2425;47.794;13.068;2023-08-01T11:47:14;20.20;;;7.23;;
4821;SDS011;2425;47.794;13.068;2023-08-01T11:49:45;21.50;;;10.20;;
4821;SDS011;2425;47.794;13.068;2023-08-01T11:52:21;20.90;;;9.80;;
4821;SDS011;2425;47.794;13.068;2023-08-01T11:54:48;16.57;;;8.53;;
4821;SDS011;2425;47.794;13.068;2023-08-01T11:57:14;18.67;;;9.37;;
4821;SDS011;2425;47.794;13.068;2023-08-01T11:59:46;23.93;;;10.67;;
4821;SDS011;2425;47.794;13.068;2023-08-01T12:02:19;17.20;;;8.77;;
4821;SDS011;2425;47.794;13.068;2023-08-01T12:04:47;18.67;;;9.30;;
4821;SDS011;2425;47.794;13.068;2023-08-01T12:07:14;17.27;;;9.60;;
4821;SDS011;2425;47.794;13.068;2023-08-01T12:09:41;29.53;;;9.63;;
4821;SDS011;2425;47.794;13.068;2023-08-01T12:12:08;14.13;;;8.23;;
4821;SDS011;2425;47.794;13.068;2023-08-01T12:14:38;13.83;;;8.57;;
4821;SDS011;2425;47.794;13.068;2023-08-01T12:17:05;22.10;;;7.40;;
4821;SDS011;2425;47.794;13.068;2023-08-01T12:19:31;14.20;;;8.07;;
4821;SDS011;2425;47.794;13.068;2023-08-01T12:22:00;15.47;;;7.33;;
4821;SDS011;2425;47.794;13.068;2023-08-01T12:24:27;17.27;;;7.90;;
4821;SDS011;2425;47.794;13.068;2023-08-01T12:26:54;18.90;;;7.93;;
4821;SDS011;2425;47.794;13.068;2023-08-01T12:29:20;24.10;;;8.00;;
4821;SDS011;2425;47.794;13.068;2023-08-01T12:31:46;12.80;;;7.73;;
4821;SDS011;2425;47.794;13.068;2023-08-01T12:34:14;17.00;;;7.77;;
4821;SDS011;2425;47.794;13.068;2023-08-01T12:36:40;12.80;;;7.80;;
4821;SDS011;2425;47.794;13.068;2023-08-01T12:39:08;11.77;;;8.17;;
4821;SDS011;2425;47.794;13.068;2023-08-01T12:41:36;17.10;;;7.70;;
4821;SDS011;2425;47.794;13.068;2023-08-01T12:44:02;12.30;;;6.63;;
4821;SDS011;2425;47.794;13.068;2023-08-01T12:46:29;13.20;;;7.40;;
4821;SDS011;2425;47.794;13.068;2023-08-01T12:48:55;12.60;;;7.43;;
4821;SDS011;2425;47.794;13.068;2023-08-01T12:51:21;12.53;;;7.37;;
4821;SDS011;2425;47.794;13.068;2023-08-01T12:53:48;12.43;;;6.90;;
4821;SDS011;2425;47.794;13.068;2023-08-01T12:56:16;8.37;;;6.77;;
4821;SDS011;2425;47.794;13.068;2023-08-01T12:58:42;11.70;;;6.80;;
4821;SDS011;2425;47.794;13.068;2023-08-01T13:01:08;12.17;;;7.30;;
4821;SDS011;2425;47.794;13.068;2023-08-01T13:03:35;11.57;;;7.03;;
4821;SDS011;2425;47.794;13.068;2023-08-01T13:06:01;13.17;;;7.17;;
4821;SDS011;2425;47.794;13.068;2023-08-01T13:08:28;10.97;;;6.40;;
4821;SDS011;2425;47.794;13.068;2023-08-01T13:10:55;13.97;;;7.00;;
4821;SDS011;2425;47.794;13.068;2023-08-01T13:13:23;10.80;;;6.10;;
4821;SDS011;2425;47.794;13.068;2023-08-01T13:15:49;10.33;;;6.80;;
4821;SDS011;2425;47.794;13.068;2023-08-01T13:18:16;12.50;;;6.90;;
4821;SDS011;2425;47.794;13.068;2023-08-01T13:20:43;10.83;;;6.53;;
4821;SDS011;2425;47.794;13.068;2023-08-01T13:23:09;9.77;;;6.67;;
4821;SDS011;2425;47.794;13.068;2023-08-01T13:25:35;8.90;;;6.43;;
4821;SDS011;2425;47.794;13.068;2023-08-01T13:28:02;11.23;;;6.77;;
4821;SDS011;2425;47.794;13.068;2023-08-01T13:30:30;15.13;;;6.40;;
4821;SDS011;2425;47.794;13.068;2023-08-01T13:32:56;11.03;;;6.37;;
4821;SDS011;2425;47.794;13.068;2023-08-01T13:35:23;9.83;;;6.53;;
4821;SDS011;2425;47.794;13.068;2023-08-01T13:37:49;9.27;;;6.33;;
4821;SDS011;2425;47.794;13.068;2023-08-01T13:40:16;8.70;;;6.13;;
4821;SDS011;2425;47.794;13.068;2023-08-01T13:42:42;10.43;;;6.73;;
4821;SDS011;2425;47.794;13.068;2023-08-01T13:45:09;8.70;;;6.13;;
4821;SDS011;2425;47.794;13.068;2023-08-01T13:47:37;8.33;;;5.53;;
4821;SDS011;2425;47.794;13.068;2023-08-01T13:50:04;7.50;;;6.13;;
4821;SDS011;2425;47.794;13.068;2023-08-01T13:52:30;9.17;;;5.80;;
4821;SDS011;2425;47.794;13.068;2023-08-01T13:54:56;9.97;;;5.73;;
4821;SDS011;2425;47.794;13.068;2023-08-01T13:57:23;7.10;;;5.73;;
4821;SDS011;2425;47.794;13.068;2023-08-01T13:59:49;6.77;;;6.10;;
4821;SDS011;2425;47.794;13.068;2023-08-01T14:02:16;5.87;;;5.27;;
4821;SDS011;2425;47.794;13.068;2023-08-01T14:04:44;10.20;;;5.07;;
4821;SDS011;2425;47.794;13.068;2023-08-01T14:07:10;9.13;;;5.63;;
4821;SDS011;2425;47.794;13.068;2023-08-01T14:09:36;7.30;;;5.17;;
4821;SDS011;2425;47.794;13.068;2023-08-01T14:12:03;7.70;;;5.50;;
4821;SDS011;2425;47.794;13.068;2023-08-01T14:14:30;7.27;;;5.57;;
4821;SDS011;2425;47.794;13.068;2023-08-01T14:16:56;5.90;;;5.30;;
4821;SDS011;2425;47.794;13.068;2023-08-01T14:19:23;6.50;;;5.37;;
4821;SDS011;2425;47.794;13.068;2023-08-01T14:21:56;6.63;;;5.27;;
4821;SDS011;2425;47.794;13.068;2023-08-01T14:24:23;6.00;;;4.90;;
4821;SDS011;2425;47.794;13.068;2023-08-01T14:26:49;6.30;;;4.87;;
4821;SDS011;2425;47.794;13.068;2023-08-01T14:29:16;7.77;;;4.80;;
4821;SDS011;2425;47.794;13.068;2023-08-01T14:31:43;5.90;;;4.70;;
4821;SDS011;2425;47.794;13.068;2023-08-01T14:34:10;7.03;;;5.03;;
4821;SDS011;2425;47.794;13.068;2023-08-01T14:36:36;5.37;;;4.63;;
4821;SDS011;2425;47.794;13.068;2023-08-01T14:39:04;6.00;;;4.73;;
4821;SDS011;2425;47.794;13.068;2023-08-01T14:41:31;5.80;;;4.50;;
4821;SDS011;2425;47.794;13.068;2023-08-01T14:43:57;5.67;;;4.63;;
4821;SDS011;2425;47.794;13.068;2023-08-01T14:46:24;6.03;;;4.53;;
4821;SDS011;2425;47.794;13.068;2023-08-01T14:48:50;5.47;;;4.97;;
4821;SDS011;2425;47.794;13.068;2023-08-01T14:51:16;6.80;;;4.67;;
4821;SDS011;2425;47.794;13.068;2023-08-01T14:53:43;5.83;;;4.43;;
4821;SDS011;2425;47.794;13.068;2023-08-01T14:56:11;6.00;;;4.50;;
4821;SDS011;2425;47.794;13.068;2023-08-01T14:58:37;5.17;;;4.70;;